Cuba, Kansas
Current Conditions -  °F | °C
As of 9:55 PM on Tuesday 25 Nov 2014 (Local Time) from KCNK Reporting Station
Overcast Overcast  
Wind Chill: 35°   Ceiling: 8500
Heat Index: 43°   Visibility: 10mi
Dew Point: 27°   Wind: 17mph
Humidity: 53%   Direction: 200°SSW
Pressure: 29.89"   Gusts: 28mph
Location:  39.8°N, 97.46°W
Report Text: KCNK 260355Z AUTO 20015G24KT 10SM OVC085 06/M03 A2989 RMK AO2 PK WND 18027/0340 SLP129 T00611028
Loading
Personal Weather Stations






























Interactive Weather Map New forecast layout! Learn more

10-Day Weather Forecast

Advertisements
Track Severe Weather on mobile